Etusivu
METAR-TAF:

METAR-TAF

Lentoasemat :

Birminghamin kansainvälinen lentoasema

Birmingham, Alabama, Yhdysvallat

Leveyspiiri: 33-33-56N, Pituuspiiri: 086-44-42W, korkeus merenpinnasta: 196 m

Tämänhetkinen sää

Tämä raportti tehtiin 1 tunti ja 0 minuuttia sitten, kello 16.53 UTC
Tuuli 10 kn pohjoisesta puuskistuen 14 kn:hen
Lämpötila 13°C
Kosteus 35%
Ilmanpaine 1024 hPa
Näkyvyys: 16.1 km
selkeää

METAR: KBHM 061653Z 35010G14KT 10SM CLR 13/M02 A3023 RMK AO2 SLP236 T01331022

Aika: 11:53 (17:53 UTC)

Sääennuste

Tämä raportti tehtiin 14 minuuttia sitten, kello 17.39 UTC
Ennuste voimassa 06. päivästä klo 18 UTC - 07. päivään klo 18 UTC
Tuuli 9 kn pohjoisesta/koillisesta puuskistuen 16 kn:hen
Näkyvyys: 10 km
selkeää
From 07. päivästä klo 0000 UTC
Tuuli 3 kn pohjoisesta
Näkyvyys: 10 km
selkeää

TAF: KBHM 061739Z 0618/0718 03009G16KT P6SM SKC FM070000 01003KT P6SM SKC

Säähavainnot ja -ennusteet yli 4000 lentoasemalta (METAR- ja TAF-raportit).

Käytössä olevat sääasemat on merkitty karttaan keltaisilla ja punaisilla pisteillä.

Aseta hiiri pisteen päälle nähdäksesi sääaseman nimen.

Klikkaa sitten nähdäksesi säähavainnot ja -ennusteet.

Kartan vaihtaminen: klikkaa mustalla rastilla varustettuja vihreitä pisteitä, niin voit zoomata sisään; viivalla varustettua vihreää pistettä, niin voit zoomata ulos tai vihreitä nuolia, niin pääset viereisille kartoille.


METAR-TAF: